createdAt,value
2018-12-21T00:01:27.587Z,100300.28
2018-12-21T00:04:29.376Z,100299.98
2018-12-21T00:07:31.313Z,100298.16
2018-12-21T00:10:33.125Z,100293.89
2018-12-21T00:13:34.976Z,100299.47
2018-12-21T00:16:36.689Z,100300.78
2018-12-21T00:19:38.481Z,100300.08
2018-12-21T00:22:40.234Z,100304.31
2018-12-21T00:25:42.086Z,100299.34
2018-12-21T00:28:43.826Z,100297.41
2018-12-21T00:31:51.570Z,100294.44
2018-12-21T00:34:59.399Z,100300.12
2018-12-21T00:38:07.190Z,100306.92
2018-12-21T00:41:14.178Z,100306.92
2018-12-21T00:44:18.028Z,100301.23
2018-12-21T00:47:19.779Z,100302.71
2018-12-21T00:50:21.587Z,100307.08
2018-12-21T00:53:23.407Z,100305.65
2018-12-21T00:56:25.226Z,100304.28
2018-12-21T00:59:27.036Z,100306.03
2018-12-21T01:02:28.803Z,100303.89
2018-12-21T01:05:30.737Z,100300.70
2018-12-21T01:08:33.705Z,100304.49
2018-12-21T01:11:35.761Z,100302.23
2018-12-21T01:14:37.546Z,100311.48
2018-12-21T01:17:39.388Z,100315.84
2018-12-21T01:20:42.335Z,100312.44
2018-12-21T01:23:44.103Z,100312.32
2018-12-21T01:26:45.903Z,100312.92
2018-12-21T01:29:47.774Z,100312.61
2018-12-21T01:32:49.557Z,100312.06
2018-12-21T01:35:51.406Z,100310.55
2018-12-21T01:38:53.145Z,100308.73
2018-12-21T01:41:54.906Z,100306.48
2018-12-21T01:44:56.662Z,100306.68
2018-12-21T01:47:58.439Z,100307.38
2018-12-21T01:51:00.276Z,100299.94
2018-12-21T01:54:02.042Z,100303.61
2018-12-21T01:57:03.998Z,100302.88
2018-12-21T02:00:07.847Z,100292.72
2018-12-21T02:03:09.718Z,100291.83
2018-12-21T02:06:11.469Z,100286.67
2018-12-21T02:09:13.267Z,100289.39
2018-12-21T02:12:15.036Z,100288.63
2018-12-21T02:15:16.827Z,100291.64
2018-12-21T02:18:18.547Z,100286.54
2018-12-21T02:21:20.332Z,100290.69
2018-12-21T02:24:22.090Z,100288.37
2018-12-21T02:27:23.926Z,100281.81
2018-12-21T02:30:25.669Z,100282.35
2018-12-21T02:33:27.508Z,100282.04
2018-12-21T02:36:29.239Z,100282.77
2018-12-21T02:39:31.045Z,100283.11
2018-12-21T02:42:32.791Z,100286.95
2018-12-21T02:45:34.589Z,100284.76
2018-12-21T02:48:36.298Z,100278.97
2018-12-21T02:51:38.181Z,100282.23
2018-12-21T02:54:39.942Z,100286.31
2018-12-21T02:57:41.804Z,100283.59
2018-12-21T03:00:43.587Z,100288.09
2018-12-21T03:03:45.382Z,100284.76
2018-12-21T03:06:47.215Z,100287.61
2018-12-21T03:09:48.938Z,100281.27
2018-12-21T03:12:50.707Z,100283.52
2018-12-21T03:15:52.494Z,100279.55
2018-12-21T03:18:54.247Z,100286.28
2018-12-21T03:21:56.060Z,100275.98
2018-12-21T03:24:57.863Z,100280.67
2018-12-21T03:27:59.729Z,100278.68
2018-12-21T03:31:01.743Z,100273.08
2018-12-21T03:34:03.573Z,100273.03
2018-12-21T03:37:05.329Z,100268.48
2018-12-21T03:40:07.202Z,100279.70
2018-12-21T03:43:08.988Z,100271.13
2018-12-21T03:46:10.962Z,100268.91
2018-12-21T03:49:12.888Z,100261.63
2018-12-21T03:52:24.038Z,100264.13
2018-12-21T03:55:18.626Z,100260.45
2018-12-21T03:58:20.465Z,100258.92
2018-12-21T04:01:22.311Z,100262.02
2018-12-21T04:04:24.029Z,100260.03
2018-12-21T04:07:25.804Z,100261.05
2018-12-21T04:10:27.628Z,100257.30
2018-12-21T04:13:29.379Z,100248.79
2018-12-21T04:16:31.166Z,100260.16
2018-12-21T04:19:32.981Z,100248.95
2018-12-21T04:22:34.790Z,100250.86
2018-12-21T04:25:36.526Z,100242.34
2018-12-21T04:28:38.449Z,100236.95
2018-12-21T04:31:40.251Z,100240.86
2018-12-21T04:34:42.031Z,100238.02
2018-12-21T04:37:43.827Z,100231.88
2018-12-21T04:40:45.624Z,100232.45
2018-12-21T04:43:47.888Z,100233.89
2018-12-21T04:46:49.675Z,100236.00
2018-12-21T04:49:51.416Z,100233.09
2018-12-21T04:52:53.299Z,100236.13
2018-12-21T04:55:55.087Z,100239.88
2018-12-21T04:58:56.933Z,100245.90
2018-12-21T05:01:58.723Z,100234.82
2018-12-21T05:05:00.508Z,100237.87
2018-12-21T05:08:02.303Z,100236.02
2018-12-21T05:11:04.063Z,100239.55
2018-12-21T05:14:07.951Z,100250.75
2018-12-21T05:17:09.747Z,100240.16
2018-12-21T05:20:11.647Z,100238.16
2018-12-21T05:23:13.432Z,100241.70
2018-12-21T05:26:16.143Z,100233.83
2018-12-21T05:29:17.999Z,100231.11
2018-12-21T05:32:19.781Z,100223.92
2018-12-21T05:35:21.566Z,100225.75
2018-12-21T05:38:23.277Z,100219.30
2018-12-21T05:41:25.118Z,100218.28
2018-12-21T05:44:26.890Z,100222.53
2018-12-21T05:47:28.951Z,100221.96
2018-12-21T05:50:30.894Z,100222.53
2018-12-21T05:53:32.717Z,100217.41
2018-12-21T05:56:34.458Z,100209.13
2018-12-21T05:59:36.217Z,100213.39
2018-12-21T06:02:38.016Z,100208.86
2018-12-21T06:05:39.795Z,100209.13
2018-12-21T06:08:41.825Z,100201.23
2018-12-21T06:11:43.606Z,100198.61
2018-12-21T06:14:45.442Z,100194.05
2018-12-21T06:17:47.223Z,100190.23
2018-12-21T06:20:49.252Z,100196.08
2018-12-21T06:23:51.054Z,100193.20
2018-12-21T06:26:52.852Z,100196.61
2018-12-21T06:29:54.684Z,100197.61
2018-12-21T06:32:56.454Z,100186.37
2018-12-21T06:35:58.288Z,100194.59
2018-12-21T06:39:00.161Z,100190.17
2018-12-21T06:42:02.096Z,100181.22
2018-12-21T06:45:04.908Z,100185.25
2018-12-21T06:48:06.807Z,100179.69
2018-12-21T06:51:08.678Z,100191.42
2018-12-21T06:54:10.454Z,100183.60
2018-12-21T06:57:12.271Z,100177.61
2018-12-21T07:00:14.158Z,100179.08
2018-12-21T07:03:17.233Z,100173.36
2018-12-21T07:06:19.346Z,100171.31
2018-12-21T07:09:21.187Z,100175.17
2018-12-21T07:12:22.926Z,100177.84
2018-12-21T07:15:24.808Z,100173.13
2018-12-21T07:18:26.728Z,100177.61
2018-12-21T07:21:28.513Z,100169.63
2018-12-21T07:24:30.291Z,100165.75
2018-12-21T07:27:32.111Z,100164.11
2018-12-21T07:30:33.929Z,100159.85
2018-12-21T07:33:35.731Z,100163.98
2018-12-21T07:36:37.796Z,100149.70
2018-12-21T07:39:39.609Z,100147.11
2018-12-21T07:42:41.419Z,100139.98
2018-12-21T07:45:43.324Z,100139.47
2018-12-21T07:48:45.369Z,100126.57
2018-12-21T07:51:47.162Z,100125.48
2018-12-21T07:54:48.972Z,100132.34
2018-12-21T07:57:50.730Z,100133.76
2018-12-21T08:00:52.547Z,100134.53
2018-12-21T08:03:54.287Z,100134.47
2018-12-21T08:06:56.094Z,100123.75
2018-12-21T08:09:57.980Z,100132.80
2018-12-21T08:13:00.114Z,100137.52
2018-12-21T08:16:02.109Z,100123.47
2018-12-21T08:19:03.926Z,100123.80
2018-12-21T08:22:05.774Z,100117.16
2018-12-21T08:25:07.782Z,100112.66
2018-12-21T08:28:09.749Z,100116.43
2018-12-21T08:31:11.567Z,100118.97
2018-12-21T08:34:13.285Z,100111.23
2018-12-21T08:37:15.131Z,100107.95
2018-12-21T08:40:16.974Z,100113.18
2018-12-21T08:43:18.796Z,100103.71
2018-12-21T08:46:20.585Z,100108.01
2018-12-21T08:49:22.410Z,100107.02
2018-12-21T08:52:24.157Z,100104.77
2018-12-21T08:55:26.027Z,100091.90
2018-12-21T08:58:27.923Z,100093.58
2018-12-21T09:01:29.787Z,100099.15
2018-12-21T09:04:32.261Z,100097.31
2018-12-21T09:07:34.556Z,100099.03
2018-12-21T09:10:36.378Z,100098.13
2018-12-21T09:13:38.226Z,100095.13
2018-12-21T09:16:41.255Z,100086.47
2018-12-21T09:19:43.086Z,100091.45
2018-12-21T09:22:44.911Z,100085.92
2018-12-21T09:25:46.735Z,100075.70
2018-12-21T09:28:48.681Z,100071.20
2018-12-21T09:31:50.555Z,100074.00
2018-12-21T09:34:52.446Z,100067.89
2018-12-21T09:37:54.224Z,100061.31
2018-12-21T09:40:57.158Z,100049.34
2018-12-21T09:43:59.357Z,100054.27
2018-12-21T09:47:01.382Z,100050.95
2018-12-21T09:50:04.799Z,100043.11
2018-12-21T09:53:06.620Z,100045.57
2018-12-21T09:56:08.305Z,100028.84
2018-12-21T09:59:10.087Z,100028.70
2018-12-21T10:02:11.909Z,100009.02
2018-12-21T10:05:14.633Z,100010.09
2018-12-21T10:08:16.725Z,99997.30
2018-12-21T10:11:18.491Z,100002.47
2018-12-21T10:14:20.446Z,99986.95
2018-12-21T10:17:22.256Z,99988.09
2018-12-21T10:20:24.145Z,99986.27
2018-12-21T10:23:26.094Z,99983.80
2018-12-21T10:26:27.935Z,99980.23
2018-12-21T10:29:29.767Z,99976.08
2018-12-21T10:32:31.495Z,99970.07
2018-12-21T10:35:33.220Z,99962.69
2018-12-21T10:38:35.055Z,99960.73
2018-12-21T10:41:36.972Z,99961.34
2018-12-21T10:44:38.837Z,99943.61
2018-12-21T10:47:40.655Z,99935.62
2018-12-21T10:50:42.430Z,99935.27
2018-12-21T10:53:46.726Z,99921.52
2018-12-21T10:56:48.703Z,99917.63
2018-12-21T10:59:50.511Z,99910.23
2018-12-21T11:02:52.512Z,99907.49
2018-12-21T11:05:54.361Z,99895.86
2018-12-21T11:08:56.064Z,99886.34
2018-12-21T11:11:57.880Z,99875.45
2018-12-21T11:14:59.824Z,99871.67
2018-12-21T11:18:01.558Z,99862.12
2018-12-21T11:21:03.433Z,99867.56
2018-12-21T11:24:05.279Z,99852.25
2018-12-21T11:27:07.026Z,99851.71
2018-12-21T11:30:08.923Z,99845.45
2018-12-21T11:33:10.767Z,99832.60
2018-12-21T11:36:12.603Z,99829.62
2018-12-21T11:39:14.463Z,99820.03
2018-12-21T11:42:16.263Z,99812.31
2018-12-21T11:45:18.230Z,99808.67
2018-12-21T11:48:20.035Z,99810.91
2018-12-21T11:51:21.844Z,99807.94
2018-12-21T11:54:23.625Z,99796.76
2018-12-21T11:57:25.489Z,99793.20
2018-12-21T12:00:27.231Z,99783.30
2018-12-21T12:03:29.092Z,99791.22
2018-12-21T12:06:31.050Z,99793.64
2018-12-21T12:09:32.854Z,99802.42
2018-12-21T12:12:34.675Z,99798.07
2018-12-21T12:15:36.627Z,99783.62
2018-12-21T12:18:38.604Z,99777.05
2018-12-21T12:21:40.665Z,99762.59
2018-12-21T12:24:42.604Z,99760.68
2018-12-21T12:27:44.412Z,99757.13
2018-12-21T12:30:46.159Z,99750.03
2018-12-21T12:33:47.970Z,99741.00
2018-12-21T12:36:49.937Z,99739.34
2018-12-21T12:39:51.761Z,99726.79
2018-12-21T12:42:53.555Z,99727.88
2018-12-21T12:45:55.413Z,99727.59
2018-12-21T12:48:57.938Z,99715.05
2018-12-21T12:51:59.732Z,99710.65
2018-12-21T12:55:02.790Z,99703.55
2018-12-21T12:58:05.257Z,99706.26
2018-12-21T13:01:07.014Z,99697.50
2018-12-21T13:04:08.858Z,99689.81
2018-12-21T13:07:10.734Z,99689.27
2018-12-21T13:10:12.634Z,99684.59
2018-12-21T13:13:14.467Z,99664.65
2018-12-21T13:16:16.273Z,99667.07
2018-12-21T13:19:18.354Z,99660.48
2018-12-21T13:22:20.364Z,99654.19
2018-12-21T13:25:22.366Z,99653.08
2018-12-21T13:28:24.165Z,99639.11
2018-12-21T13:31:25.954Z,99626.22
2018-12-21T13:34:27.809Z,99631.66
2018-12-21T13:37:29.603Z,99632.16
2018-12-21T13:40:31.403Z,99625.61
2018-12-21T13:43:33.239Z,99620.13
2018-12-21T13:46:35.083Z,99613.05
2018-12-21T13:49:37.094Z,99606.49
2018-12-21T13:52:38.947Z,99604.81
2018-12-21T13:55:41.969Z,99605.05
2018-12-21T13:58:43.745Z,99591.65
2018-12-21T14:01:45.504Z,99585.12
2018-12-21T14:04:47.354Z,99582.42
2018-12-21T14:07:49.185Z,99585.75
2018-12-21T14:10:51.026Z,99576.44
2018-12-21T14:13:52.805Z,99577.00
2018-12-21T14:16:54.661Z,99577.00
2018-12-21T14:19:56.496Z,99583.84
2018-12-21T14:22:58.410Z,99571.02
2018-12-21T14:26:00.210Z,99571.26
2018-12-21T14:29:02.086Z,99562.75
2018-12-21T14:32:03.880Z,99553.13
2018-12-21T14:35:05.767Z,99540.47
2018-12-21T14:38:07.591Z,99533.00
2018-12-21T14:41:09.488Z,99531.06
2018-12-21T14:44:11.394Z,99528.30
2018-12-21T14:47:13.333Z,99530.19
2018-12-21T14:50:15.390Z,99522.57
2018-12-21T14:53:17.301Z,99523.98
2018-12-21T14:56:19.267Z,99524.28
2018-12-21T14:59:21.164Z,99514.70
2018-12-21T15:02:22.985Z,99520.39
2018-12-21T15:05:24.896Z,99509.96
2018-12-21T15:08:26.892Z,99499.86
2018-12-21T15:11:28.779Z,99497.91
2018-12-21T15:14:30.684Z,99502.31
2018-12-21T15:17:32.489Z,99505.11
2018-12-21T15:20:34.358Z,99496.44
2018-12-21T15:23:36.397Z,99487.66
2018-12-21T15:26:38.228Z,99474.02
2018-12-21T15:29:41.125Z,99462.27
2018-12-21T15:32:43.391Z,99448.11
2018-12-21T15:35:45.192Z,99436.41
2018-12-21T15:38:47.098Z,99429.59
2018-12-21T15:41:48.970Z,99418.13
2018-12-21T15:44:51.185Z,99408.60
2018-12-21T15:47:53.251Z,99399.59
2018-12-21T15:50:55.237Z,99380.46
2018-12-21T15:53:57.090Z,99362.92
2018-12-21T15:56:59.085Z,99365.36
2018-12-21T16:00:00.853Z,99351.77
2018-12-21T16:03:02.883Z,99364.89
2018-12-21T16:06:04.725Z,99361.16
2018-12-21T16:09:06.857Z,99359.30
2018-12-21T16:12:08.812Z,99359.06
2018-12-21T16:15:10.774Z,99358.28
2018-12-21T16:18:12.617Z,99349.27
2018-12-21T16:21:14.508Z,99337.53
2018-12-21T16:24:16.504Z,99323.63
2018-12-21T16:27:18.406Z,99326.08
2018-12-21T16:30:20.411Z,99318.16
2018-12-21T16:33:22.629Z,99307.25
2018-12-21T16:36:24.419Z,99300.15
2018-12-21T16:39:26.344Z,99284.02
2018-12-21T16:42:28.269Z,99280.48
2018-12-21T16:45:30.247Z,99272.55
2018-12-21T16:48:32.391Z,99261.63
2018-12-21T16:51:34.346Z,99258.64
2018-12-21T16:54:36.387Z,99238.70
2018-12-21T16:57:38.266Z,99230.52
2018-12-21T17:00:40.371Z,99229.97
2018-12-21T17:03:42.362Z,99225.88
2018-12-21T17:06:44.439Z,99223.17
2018-12-21T17:09:47.487Z,99218.23
2018-12-21T17:12:49.282Z,99203.77
2018-12-21T17:15:51.084Z,99206.24
2018-12-21T17:18:52.855Z,99195.88
2018-12-21T17:21:54.639Z,99191.52
2018-12-21T17:24:56.530Z,99174.85
2018-12-21T17:27:58.305Z,99166.67
2018-12-21T17:31:00.272Z,99160.69
2018-12-21T17:34:02.302Z,99140.77
2018-12-21T17:37:04.236Z,99148.13
2018-12-21T17:40:07.412Z,99146.75
2018-12-21T17:43:09.367Z,99142.11
2018-12-21T17:46:11.296Z,99151.09
2018-12-21T17:49:13.180Z,99140.73
2018-12-21T17:52:15.019Z,99152.46
2018-12-21T17:55:16.916Z,99132.54
2018-12-21T17:58:18.752Z,99133.59
2018-12-21T18:01:20.620Z,99127.88
2018-12-21T18:04:22.654Z,99131.72
2018-12-21T18:07:24.400Z,99131.73
2018-12-21T18:10:26.301Z,99132.30
2018-12-21T18:13:28.130Z,99131.73
2018-12-21T18:16:29.961Z,99120.57
2018-12-21T18:19:31.835Z,99115.16
2018-12-21T18:22:33.793Z,99109.14
2018-12-21T18:25:35.894Z,99110.52
2018-12-21T18:28:37.766Z,99095.25
2018-12-21T18:31:43.985Z,99091.42
2018-12-21T18:34:45.952Z,99093.33
2018-12-21T18:37:48.428Z,99089.80
2018-12-21T18:40:50.453Z,99082.98
2018-12-21T18:43:52.529Z,99074.23
2018-12-21T18:46:54.495Z,99070.44
2018-12-21T18:49:56.484Z,99068.53
2018-12-21T18:52:58.345Z,99055.45
2018-12-21T18:56:00.393Z,99057.62
2018-12-21T18:59:02.283Z,99042.06
2018-12-21T19:02:04.522Z,99043.69
2018-12-21T19:05:07.578Z,99039.59
2018-12-21T19:08:09.705Z,99033.33
2018-12-21T19:11:11.633Z,99033.32
2018-12-21T19:14:13.507Z,99017.20
2018-12-21T19:17:15.512Z,99009.31
2018-12-21T19:20:17.398Z,99008.22
2018-12-21T19:23:19.237Z,98996.49
2018-12-21T19:26:21.187Z,98991.85
2018-12-21T19:29:23.132Z,98988.57
2018-12-21T19:32:24.902Z,98981.48
2018-12-21T19:35:28.777Z,98971.13
2018-12-21T19:38:30.644Z,98968.96
2018-12-21T19:41:32.744Z,98967.28
2018-12-21T19:44:34.602Z,98968.64
2018-12-21T19:47:36.520Z,98966.16
2018-12-21T19:50:38.365Z,98957.41
2018-12-21T19:53:40.238Z,98951.96
2018-12-21T19:56:44.693Z,98949.77
2018-12-21T19:59:46.660Z,98930.11
2018-12-21T20:02:48.536Z,98940.77
2018-12-21T20:05:50.648Z,98935.80
2018-12-21T20:08:52.714Z,98922.47
2018-12-21T20:11:54.555Z,98924.91
2018-12-21T20:14:56.436Z,98904.42
2018-12-21T20:17:58.236Z,98894.61
2018-12-21T20:21:00.024Z,98901.13
2018-12-21T20:24:01.821Z,98898.69
2018-12-21T20:27:13.061Z,98887.45
2018-12-21T20:30:11.056Z,98888.81
2018-12-21T20:33:12.947Z,98874.58
2018-12-21T20:36:14.909Z,98881.37
2018-12-21T20:39:17.469Z,98875.39
2018-12-21T20:42:19.275Z,98876.16
2018-12-21T20:45:21.019Z,98880.23
2018-12-21T20:48:22.949Z,98880.78
2018-12-21T20:51:24.964Z,98860.20
2018-12-21T20:54:26.929Z,98861.31
2018-12-21T20:57:28.824Z,98859.59
2018-12-21T21:00:30.703Z,98863.33
2018-12-21T21:03:32.502Z,98868.72
2018-12-21T21:06:34.334Z,98865.64
2018-12-21T21:09:36.170Z,98856.84
2018-12-21T21:12:38.505Z,98862.59
2018-12-21T21:15:40.312Z,98860.28
2018-12-21T21:18:42.133Z,98857.26
2018-12-21T21:21:43.907Z,98859.06
2018-12-21T21:24:45.795Z,98855.95
2018-12-21T21:27:48.039Z,98854.78
2018-12-21T21:30:49.890Z,98859.62
2018-12-21T21:33:51.710Z,98857.03
2018-12-21T21:36:53.507Z,98854.95
2018-12-21T21:39:55.344Z,98849.39
2018-12-21T21:42:57.669Z,98839.45
2018-12-21T21:45:59.896Z,98825.61
2018-12-21T21:49:01.847Z,98833.38
2018-12-21T21:52:03.658Z,98834.01
2018-12-21T21:55:05.749Z,98828.98
2018-12-21T21:58:08.982Z,98832.39
2018-12-21T22:01:10.820Z,98824.95
2018-12-21T22:04:12.575Z,98814.96
2018-12-21T22:07:14.377Z,98822.62
2018-12-21T22:10:16.735Z,98823.80
2018-12-21T22:13:18.545Z,98824.88
2018-12-21T22:16:20.405Z,98809.81
2018-12-21T22:19:22.178Z,98825.33
2018-12-21T22:22:24.003Z,98823.84
2018-12-21T22:25:25.787Z,98830.09
2018-12-21T22:28:27.665Z,98824.57
2018-12-21T22:31:29.547Z,98827.71
2018-12-21T22:34:31.347Z,98827.83
2018-12-21T22:37:33.515Z,98824.12
2018-12-21T22:40:35.299Z,98819.28
2018-12-21T22:43:37.209Z,98818.80
2018-12-21T22:46:39.145Z,98809.48
2018-12-21T22:49:40.967Z,98820.13
2018-12-21T22:52:42.864Z,98810.25
2018-12-21T22:55:45.105Z,98815.98
2018-12-21T22:58:47.068Z,98812.14
2018-12-21T23:01:48.904Z,98816.83
2018-12-21T23:04:50.764Z,98808.36
2018-12-21T23:07:52.753Z,98812.67
2018-12-21T23:10:54.973Z,98814.36
2018-12-21T23:13:56.798Z,98815.98
2018-12-21T23:16:58.662Z,98806.67
2018-12-21T23:20:00.422Z,98814.89
2018-12-21T23:23:02.220Z,98826.05
2018-12-21T23:26:04.038Z,98820.53
2018-12-21T23:29:05.914Z,98839.27
2018-12-21T23:32:07.663Z,98837.73
2018-12-21T23:35:09.492Z,98834.20
2018-12-21T23:38:11.468Z,98843.95
2018-12-21T23:41:13.301Z,98858.11
2018-12-21T23:44:15.076Z,98836.80
2018-12-21T23:47:16.882Z,98845.66
2018-12-21T23:50:18.681Z,98855.88
2018-12-21T23:53:20.455Z,98849.66
2018-12-21T23:56:22.270Z,98849.91
2018-12-21T23:59:24.124Z,98846.40
